createdAt,value
2022-08-17T00:01:40.010Z,7.17
2022-08-17T00:04:19.884Z,7.70
2022-08-17T00:06:49.217Z,7.70
2022-08-17T00:09:19.047Z,7.83
2022-08-17T00:12:03.894Z,8.37
2022-08-17T00:14:34.128Z,7.93
2022-08-17T00:17:00.854Z,7.57
2022-08-17T00:19:27.455Z,8.07
2022-08-17T00:22:32.563Z,8.37
2022-08-17T00:24:44.563Z,8.40
2022-08-17T00:27:11.266Z,7.43
2022-08-17T00:29:37.863Z,8.23
2022-08-17T00:33:15.410Z,8.60
2022-08-17T00:34:51.242Z,8.00
2022-08-17T00:37:18.567Z,7.20
2022-08-17T00:39:45.166Z,7.43
2022-08-17T00:42:17.405Z,7.97
2022-08-17T00:44:44.345Z,8.17
2022-08-17T00:47:10.907Z,8.07
2022-08-17T00:49:37.562Z,8.73
2022-08-17T00:52:15.533Z,7.17
2022-08-17T00:54:45.009Z,7.90
2022-08-17T00:57:17.489Z,8.53
2022-08-17T00:59:56.032Z,8.10
2022-08-17T01:02:42.034Z,8.47
2022-08-17T01:05:15.043Z,8.80
2022-08-17T01:07:43.133Z,7.27
2022-08-17T01:11:00.251Z,8.30
2022-08-17T01:13:02.531Z,8.53
2022-08-17T01:15:36.496Z,9.03
2022-08-17T01:18:08.148Z,7.60
2022-08-17T01:20:48.346Z,7.90
2022-08-17T01:23:20.427Z,7.63
2022-08-17T01:25:55.281Z,8.20
2022-08-17T01:28:52.799Z,7.50
2022-08-17T01:31:15.236Z,8.13
2022-08-17T01:33:41.960Z,8.83
2022-08-17T01:36:09.331Z,7.50
2022-08-17T01:38:37.423Z,7.80
2022-08-17T01:41:11.254Z,7.33
2022-08-17T01:43:47.543Z,7.77
2022-08-17T01:46:23.072Z,7.70
2022-08-17T01:48:51.260Z,7.83
2022-08-17T01:51:18.124Z,7.93
2022-08-17T01:53:50.741Z,7.23
2022-08-17T01:56:21.577Z,7.60
2022-08-17T01:58:48.617Z,7.53
2022-08-17T02:01:18.028Z,8.37
2022-08-17T02:03:56.097Z,7.33
2022-08-17T02:06:47.038Z,8.00
2022-08-17T02:09:19.524Z,7.27
2022-08-17T02:11:50.034Z,8.10
2022-08-17T02:14:16.812Z,8.07
2022-08-17T02:16:43.700Z,8.03
2022-08-17T02:19:15.749Z,8.33
2022-08-17T02:21:45.896Z,7.73
2022-08-17T02:24:17.444Z,7.87
2022-08-17T02:27:04.581Z,8.20
2022-08-17T02:29:31.422Z,8.20
2022-08-17T02:31:58.652Z,8.17
2022-08-17T02:34:26.307Z,7.90
2022-08-17T02:36:53.488Z,7.90
2022-08-17T02:39:20.285Z,7.47
2022-08-17T02:41:46.935Z,7.30
2022-08-17T02:44:13.614Z,7.80
2022-08-17T02:47:00.721Z,7.10
2022-08-17T02:49:27.281Z,7.43
2022-08-17T02:51:53.843Z,7.17
2022-08-17T02:54:39.916Z,6.97
2022-08-17T02:57:07.390Z,7.13
2022-08-17T02:59:34.095Z,7.23
2022-08-17T03:02:03.455Z,7.40
2022-08-17T03:04:30.399Z,6.90
2022-08-17T03:06:56.997Z,6.97
2022-08-17T03:09:23.795Z,7.43
2022-08-17T03:11:53.078Z,7.37
2022-08-17T03:14:26.091Z,7.07
2022-08-17T03:16:53.061Z,7.07
2022-08-17T03:19:19.617Z,6.70
2022-08-17T03:21:46.165Z,6.70
2022-08-17T03:24:21.730Z,7.37
2022-08-17T03:26:55.466Z,7.17
2022-08-17T03:29:22.260Z,7.10
2022-08-17T03:31:50.028Z,6.77
2022-08-17T03:34:17.212Z,6.93
2022-08-17T03:36:43.933Z,7.03
2022-08-17T03:39:10.573Z,7.30
2022-08-17T03:41:39.041Z,7.07
2022-08-17T03:44:05.885Z,7.20
2022-08-17T03:46:51.121Z,6.97
2022-08-17T03:49:35.903Z,6.87
2022-08-17T03:52:20.777Z,7.57
2022-08-17T03:55:05.684Z,7.10
2022-08-17T03:57:32.544Z,6.17
2022-08-17T03:59:59.865Z,6.33
2022-08-17T04:02:34.264Z,7.20
2022-08-17T04:05:03.495Z,6.93
2022-08-17T04:07:31.499Z,7.23
2022-08-17T04:09:59.495Z,6.30
2022-08-17T04:12:31.259Z,6.43
2022-08-17T04:14:58.443Z,6.57
2022-08-17T04:17:29.419Z,7.10
2022-08-17T04:19:56.946Z,7.10
2022-08-17T04:22:32.537Z,6.67
2022-08-17T04:25:13.884Z,6.60
2022-08-17T04:27:40.518Z,7.10
2022-08-17T04:30:07.748Z,6.60
2022-08-17T04:33:19.132Z,6.77
2022-08-17T04:35:50.161Z,7.20
2022-08-17T04:38:20.078Z,7.10
2022-08-17T04:41:06.009Z,7.40
2022-08-17T04:43:39.932Z,6.90
2022-08-17T04:46:10.147Z,7.40
2022-08-17T04:48:39.787Z,6.97
2022-08-17T04:51:19.307Z,6.50
2022-08-17T04:53:53.193Z,7.63
2022-08-17T04:56:21.916Z,7.10
2022-08-17T04:58:51.418Z,6.80
2022-08-17T05:01:24.065Z,7.63
2022-08-17T05:03:53.301Z,7.13
2022-08-17T05:06:20.533Z,7.30
2022-08-17T05:08:47.881Z,7.10
2022-08-17T05:11:14.703Z,6.83
2022-08-17T05:13:41.365Z,7.40
2022-08-17T05:16:09.216Z,6.70
2022-08-17T05:18:37.316Z,7.17
2022-08-17T05:21:04.485Z,7.50
2022-08-17T05:23:35.008Z,7.40
2022-08-17T05:26:25.997Z,6.67
2022-08-17T05:28:58.445Z,7.40
2022-08-17T05:31:27.359Z,7.13
2022-08-17T05:33:53.958Z,6.07
2022-08-17T05:36:42.154Z,6.70
2022-08-17T05:39:07.686Z,6.57
2022-08-17T05:41:34.305Z,6.37
2022-08-17T05:44:00.901Z,6.53
2022-08-17T05:46:40.308Z,6.53
2022-08-17T05:49:08.143Z,7.50
2022-08-17T05:52:03.194Z,6.70
2022-08-17T05:54:39.568Z,6.30
2022-08-17T05:57:17.965Z,7.47
2022-08-17T06:00:14.281Z,7.10
2022-08-17T06:02:56.140Z,7.00
2022-08-17T06:05:51.483Z,6.47
2022-08-17T06:08:32.028Z,5.97
2022-08-17T06:11:27.971Z,6.53
2022-08-17T06:14:22.213Z,6.17
2022-08-17T06:16:56.788Z,6.57
2022-08-17T06:19:36.316Z,8.13
2022-08-17T06:22:06.058Z,5.80
2022-08-17T06:24:42.063Z,6.07
2022-08-17T06:27:21.153Z,5.50
2022-08-17T06:30:05.445Z,5.60
2022-08-17T06:32:32.232Z,5.17
2022-08-17T06:35:00.525Z,5.90
2022-08-17T06:38:04.674Z,6.23
2022-08-17T06:41:01.994Z,5.70
2022-08-17T06:43:40.434Z,5.57
2022-08-17T06:46:13.114Z,5.00
2022-08-17T06:49:08.019Z,5.20
2022-08-17T06:51:53.691Z,4.97
2022-08-17T06:55:02.011Z,4.90
2022-08-17T06:57:32.029Z,4.87
2022-08-17T07:00:04.352Z,4.93
2022-08-17T07:02:51.522Z,4.77
2022-08-17T07:05:28.107Z,4.47
2022-08-17T07:08:02.920Z,5.90
2022-08-17T07:10:36.509Z,5.80
2022-08-17T07:13:17.087Z,6.30
2022-08-17T07:15:45.506Z,7.00
2022-08-17T07:18:12.096Z,7.00
2022-08-17T07:20:43.808Z,7.73
2022-08-17T07:23:26.880Z,7.53
2022-08-17T07:25:53.470Z,7.97
2022-08-17T07:28:23.233Z,7.50
2022-08-17T07:30:54.633Z,7.70
2022-08-17T07:33:26.261Z,7.40
2022-08-17T07:35:58.236Z,7.50
2022-08-17T07:38:33.345Z,8.00
2022-08-17T07:41:07.105Z,7.87
2022-08-17T07:43:39.941Z,7.80
2022-08-17T07:46:46.372Z,8.57
2022-08-17T07:49:12.906Z,8.23
2022-08-17T07:51:42.581Z,8.70
2022-08-17T07:54:15.398Z,8.83
2022-08-17T07:56:42.168Z,9.10
2022-08-17T07:59:10.702Z,9.87
2022-08-17T08:01:41.888Z,9.93
2022-08-17T08:04:20.080Z,9.93
2022-08-17T08:06:59.634Z,10.30
2022-08-17T08:09:41.731Z,10.60
2022-08-17T08:12:21.838Z,10.37
2022-08-17T08:15:14.044Z,11.40
2022-08-17T08:17:52.085Z,9.60
2022-08-17T08:20:50.957Z,10.43
2022-08-17T08:23:34.109Z,11.50
2022-08-17T08:26:03.560Z,11.10
2022-08-17T08:28:39.787Z,11.53
2022-08-17T08:31:09.673Z,10.43
2022-08-17T08:33:40.069Z,10.43
2022-08-17T08:37:14.453Z,11.20
2022-08-17T08:40:15.119Z,12.70
2022-08-17T08:43:04.001Z,12.90
2022-08-17T08:45:49.157Z,11.03
2022-08-17T08:48:22.932Z,10.17
2022-08-17T08:51:33.014Z,10.60
2022-08-17T08:54:16.572Z,12.50
2022-08-17T08:59:59.763Z,12.37
2022-08-17T09:03:04.197Z,12.67
2022-08-17T09:05:42.968Z,11.73
2022-08-17T09:08:21.869Z,12.67
2022-08-17T09:11:27.033Z,12.63
2022-08-17T09:13:57.541Z,12.47
2022-08-17T09:16:45.646Z,13.20
2022-08-17T09:19:19.509Z,11.87
2022-08-17T09:21:55.599Z,12.97
2022-08-17T09:24:32.176Z,14.30
2022-08-17T09:27:14.790Z,14.30
2022-08-17T09:30:00.248Z,13.47
2022-08-17T09:32:52.161Z,13.30
2022-08-17T09:35:24.202Z,11.57
2022-08-17T09:38:15.268Z,12.63
2022-08-17T09:41:03.760Z,12.80
2022-08-17T09:43:41.585Z,14.07
2022-08-17T09:46:18.281Z,13.53
2022-08-17T09:48:59.762Z,12.47
2022-08-17T09:51:35.283Z,14.20
2022-08-17T09:54:34.739Z,14.03
2022-08-17T09:57:11.925Z,13.30
2022-08-17T10:00:30.415Z,12.27
2022-08-17T10:03:19.885Z,13.97
2022-08-17T10:06:01.603Z,13.73
2022-08-17T10:08:52.312Z,16.27
2022-08-17T10:12:06.810Z,17.13
2022-08-17T10:14:43.970Z,17.73
2022-08-17T10:17:17.188Z,19.53
2022-08-17T10:19:58.659Z,19.77
2022-08-17T10:22:54.823Z,18.33
2022-08-17T10:25:55.026Z,18.47
2022-08-17T10:28:30.532Z,20.33
2022-08-17T10:31:32.981Z,20.67
2022-08-17T10:34:19.185Z,20.40
2022-08-17T10:36:58.229Z,20.87
2022-08-17T10:39:36.574Z,20.27
2022-08-17T10:42:35.275Z,20.07
2022-08-17T10:45:07.542Z,21.97
2022-08-17T10:47:56.062Z,18.67
2022-08-17T10:50:59.998Z,20.20
2022-08-17T10:53:32.500Z,21.03
2022-08-17T10:56:14.414Z,19.87
2022-08-17T10:58:57.898Z,21.73
2022-08-17T11:01:38.218Z,20.50
2022-08-17T11:04:21.396Z,23.37
2022-08-17T11:07:02.387Z,23.53
2022-08-17T11:09:58.487Z,21.67
2022-08-17T11:13:11.644Z,23.47
2022-08-17T11:15:44.110Z,24.40
2022-08-17T11:18:28.278Z,22.23
2022-08-17T11:20:57.975Z,23.10
2022-08-17T11:23:40.054Z,22.53
2022-08-17T11:26:26.317Z,26.07
2022-08-17T11:29:00.140Z,23.80
2022-08-17T11:31:40.285Z,28.00
2022-08-17T11:34:26.567Z,28.63
2022-08-17T11:37:31.881Z,28.70
2022-08-17T11:40:33.785Z,24.50
2022-08-17T11:43:28.521Z,27.40
2022-08-17T11:46:19.975Z,27.47
2022-08-17T11:49:27.035Z,29.63
2022-08-17T11:52:01.047Z,29.70
2022-08-17T11:54:33.776Z,31.90
2022-08-17T11:57:25.825Z,31.33
2022-08-17T12:00:11.359Z,32.23
2022-08-17T12:02:49.051Z,32.47
2022-08-17T12:05:19.438Z,29.97
2022-08-17T12:07:52.634Z,31.23
2022-08-17T12:10:30.383Z,29.53
2022-08-17T12:12:58.720Z,37.23
2022-08-17T12:15:42.738Z,29.03
2022-08-17T12:18:29.330Z,34.07
2022-08-17T12:21:12.250Z,37.70
2022-08-17T12:24:06.804Z,36.60
2022-08-17T12:26:35.923Z,36.73
2022-08-17T12:29:06.516Z,34.10
2022-08-17T12:31:44.346Z,34.73
2022-08-17T12:34:39.260Z,33.07
2022-08-17T12:37:18.700Z,35.40
2022-08-17T12:40:03.924Z,39.13
2022-08-17T12:42:37.584Z,39.73
2022-08-17T12:45:07.630Z,42.40
2022-08-17T12:47:37.502Z,39.83
2022-08-17T12:50:29.897Z,38.47
2022-08-17T12:53:01.091Z,41.90
2022-08-17T12:55:32.556Z,42.30
2022-08-17T12:58:01.899Z,36.57
2022-08-17T13:00:34.854Z,41.13
2022-08-17T13:03:15.794Z,37.30
2022-08-17T13:05:59.792Z,40.33
2022-08-17T13:08:50.476Z,39.03
2022-08-17T13:11:22.516Z,41.97
2022-08-17T13:13:52.002Z,40.67
2022-08-17T13:16:22.850Z,37.07
2022-08-17T13:18:55.609Z,41.63
2022-08-17T13:21:30.622Z,41.07
2022-08-17T13:24:07.820Z,41.00
2022-08-17T13:26:38.288Z,40.17
2022-08-17T13:29:23.641Z,37.47
2022-08-17T13:31:56.627Z,38.37
2022-08-17T13:35:03.727Z,42.87
2022-08-17T13:37:35.323Z,40.13
2022-08-17T13:40:25.001Z,41.00
2022-08-17T13:42:54.224Z,33.93
2022-08-17T13:45:39.603Z,38.37
2022-08-17T13:48:14.528Z,35.47
2022-08-17T13:50:50.067Z,44.00
2022-08-17T13:53:36.987Z,43.70
2022-08-17T13:56:37.428Z,42.20
2022-08-17T13:59:09.894Z,41.43
2022-08-17T14:01:42.798Z,44.63
2022-08-17T14:04:16.576Z,43.23
2022-08-17T14:07:20.381Z,43.93
2022-08-17T14:09:52.348Z,41.87
2022-08-17T14:12:22.291Z,37.40
2022-08-17T14:14:49.838Z,36.13
2022-08-17T14:17:16.566Z,42.30
2022-08-17T14:19:43.321Z,44.73
2022-08-17T14:22:18.888Z,44.40
2022-08-17T14:24:46.008Z,40.50
2022-08-17T14:27:12.670Z,36.23
2022-08-17T14:29:41.296Z,34.77
2022-08-17T14:32:26.825Z,36.07
2022-08-17T14:34:56.849Z,32.87
2022-08-17T14:37:28.630Z,37.10
2022-08-17T14:39:57.528Z,39.23
2022-08-17T14:42:27.826Z,32.60
2022-08-17T14:44:55.491Z,35.87
2022-08-17T14:47:22.894Z,38.30
2022-08-17T14:49:49.622Z,37.10
2022-08-17T14:52:22.025Z,35.57
2022-08-17T14:54:52.926Z,38.50
2022-08-17T14:57:33.179Z,35.47
2022-08-17T15:00:02.663Z,33.57
2022-08-17T15:02:31.037Z,29.63
2022-08-17T15:05:06.101Z,31.07
2022-08-17T15:07:32.884Z,37.27
2022-08-17T15:10:02.472Z,30.33
2022-08-17T15:12:33.641Z,32.60
2022-08-17T15:15:04.605Z,34.43
2022-08-17T15:17:44.617Z,29.53
2022-08-17T15:20:16.035Z,30.77
2022-08-17T15:22:44.648Z,29.07
2022-08-17T15:25:12.330Z,32.30
2022-08-17T15:27:39.118Z,26.53
2022-08-17T15:30:07.532Z,26.23
2022-08-17T15:32:38.685Z,22.30
2022-08-17T15:35:07.925Z,24.80
2022-08-17T15:37:36.482Z,23.27
2022-08-17T15:40:05.469Z,28.20
2022-08-17T15:42:32.491Z,24.63
2022-08-17T15:45:00.165Z,25.43
2022-08-17T15:47:26.971Z,30.13
2022-08-17T15:49:59.409Z,30.23
2022-08-17T15:52:30.148Z,28.47
2022-08-17T15:54:59.708Z,29.00
2022-08-17T15:57:27.504Z,28.33
2022-08-17T15:59:59.198Z,31.10
2022-08-17T16:03:45.712Z,34.43
2022-08-17T16:05:24.868Z,30.00
2022-08-17T16:07:52.563Z,35.37
2022-08-17T16:10:19.786Z,33.57
2022-08-17T16:12:48.765Z,36.80
2022-08-17T16:15:16.709Z,40.57
2022-08-17T16:17:43.682Z,37.83
2022-08-17T16:20:20.512Z,33.20
2022-08-17T16:22:49.534Z,37.20
2022-08-17T16:25:21.798Z,34.47
2022-08-17T16:27:50.714Z,35.17
2022-08-17T16:30:18.120Z,35.23
2022-08-17T16:32:45.236Z,31.00
2022-08-17T16:35:16.740Z,31.30
2022-08-17T16:37:46.961Z,31.20
2022-08-17T16:40:15.856Z,29.80
2022-08-17T16:42:43.435Z,31.40
2022-08-17T16:45:20.481Z,31.73
2022-08-17T16:47:50.187Z,29.13
2022-08-17T16:50:19.770Z,29.10
2022-08-17T16:52:50.499Z,30.90
2022-08-17T16:55:21.477Z,30.53
2022-08-17T16:57:50.230Z,27.30
2022-08-17T17:00:19.487Z,28.23
2022-08-17T17:02:49.641Z,33.53
2022-08-17T17:05:25.662Z,39.17
2022-08-17T17:08:12.813Z,32.50
2022-08-17T17:10:47.567Z,28.87
2022-08-17T17:13:26.500Z,31.50
2022-08-17T17:16:05.667Z,35.00
2022-08-17T17:18:40.694Z,36.40
2022-08-17T17:21:13.573Z,36.73
2022-08-17T17:24:00.291Z,33.77
2022-08-17T17:26:46.880Z,34.60
2022-08-17T17:29:18.535Z,35.97
2022-08-17T17:31:56.461Z,32.27
2022-08-17T17:34:26.656Z,31.13
2022-08-17T17:36:58.437Z,32.67
2022-08-17T17:39:55.901Z,30.27
2022-08-17T17:42:28.815Z,32.53
2022-08-17T17:45:03.737Z,32.67
2022-08-17T17:47:31.423Z,30.53
2022-08-17T17:50:00.825Z,30.17
2022-08-17T17:52:46.398Z,28.70
2022-08-17T17:55:33.419Z,31.63
2022-08-17T17:58:09.756Z,32.20
2022-08-17T18:00:43.938Z,28.87
2022-08-17T18:03:44.103Z,27.60
2022-08-17T18:06:28.653Z,25.17
2022-08-17T18:09:28.493Z,25.50
2022-08-17T18:12:19.902Z,23.47
2022-08-17T18:14:49.756Z,27.80
2022-08-17T18:17:18.302Z,26.37
2022-08-17T18:19:45.361Z,24.50
2022-08-17T18:22:21.911Z,24.27
2022-08-17T18:24:56.556Z,25.23
2022-08-17T18:27:25.884Z,24.40
2022-08-17T18:29:55.630Z,27.00
2022-08-17T18:32:28.622Z,24.87
2022-08-17T18:35:09.210Z,23.20
2022-08-17T18:37:35.911Z,24.70
2022-08-17T18:40:33.696Z,21.50
2022-08-17T18:43:22.972Z,25.50
2022-08-17T18:45:52.983Z,24.43
2022-08-17T18:48:36.227Z,26.87
2022-08-17T18:51:39.823Z,25.17
2022-08-17T18:54:17.505Z,24.30
2022-08-17T18:56:51.473Z,25.57
2022-08-17T18:59:40.449Z,23.03
2022-08-17T19:02:44.638Z,25.60
2022-08-17T19:05:33.808Z,23.70
2022-08-17T19:08:21.386Z,23.60
2022-08-17T19:11:10.879Z,21.90
2022-08-17T19:13:43.930Z,21.93
2022-08-17T19:16:14.935Z,21.20
2022-08-17T19:19:14.677Z,20.60
2022-08-17T19:21:57.496Z,17.80
2022-08-17T19:24:27.134Z,17.97
2022-08-17T19:27:06.310Z,19.63
2022-08-17T19:29:42.583Z,20.00
2022-08-17T19:32:11.063Z,20.43
2022-08-17T19:34:39.177Z,22.07
2022-08-17T19:37:20.853Z,21.70
2022-08-17T19:40:07.121Z,25.47
2022-08-17T19:42:52.919Z,23.43
2022-08-17T19:45:34.423Z,21.93
2022-08-17T19:48:19.516Z,21.63
2022-08-17T19:51:07.538Z,23.30
2022-08-17T19:54:03.789Z,21.07
2022-08-17T19:57:01.727Z,21.97
2022-08-17T20:00:13.429Z,23.87
2022-08-17T20:02:55.547Z,23.57
2022-08-17T20:06:09.161Z,25.70
2022-08-17T20:08:38.727Z,26.57
2022-08-17T20:11:15.234Z,25.30
2022-08-17T20:13:46.411Z,25.63
2022-08-17T20:16:13.168Z,22.97
2022-08-17T20:18:54.885Z,24.53
2022-08-17T20:21:29.186Z,25.17
2022-08-17T20:24:05.892Z,24.93
2022-08-17T20:26:55.213Z,28.43
2022-08-17T20:29:40.093Z,26.67
2022-08-17T20:32:21.632Z,27.70
2022-08-17T20:34:48.490Z,29.23
2022-08-17T20:37:15.066Z,29.93
2022-08-17T20:40:04.929Z,30.57
2022-08-17T20:42:33.942Z,31.37
2022-08-17T20:45:22.243Z,27.93
2022-08-17T20:48:18.606Z,30.97
2022-08-17T20:50:44.330Z,30.87
2022-08-17T20:53:15.016Z,32.93
2022-08-17T20:55:52.312Z,34.67
2022-08-17T20:58:21.295Z,34.23
2022-08-17T21:00:57.138Z,31.80
2022-08-17T21:03:23.964Z,34.93
2022-08-17T21:06:15.346Z,36.23
2022-08-17T21:08:53.286Z,36.07
2022-08-17T21:11:57.032Z,32.43
2022-08-17T21:14:31.821Z,33.20
2022-08-17T21:17:07.648Z,35.90
2022-08-17T21:20:07.656Z,35.50
2022-08-17T21:22:36.181Z,39.83
2022-08-17T21:25:34.259Z,38.57
2022-08-17T21:28:11.454Z,39.03
2022-08-17T21:30:39.771Z,39.70
2022-08-17T21:33:21.307Z,39.67
2022-08-17T21:35:52.450Z,41.40
2022-08-17T21:38:23.365Z,42.30
2022-08-17T21:40:54.149Z,40.83
2022-08-17T21:43:32.579Z,40.73
2022-08-17T21:46:10.650Z,43.33
2022-08-17T21:48:44.822Z,43.73
2022-08-17T21:51:19.750Z,45.67
2022-08-17T21:53:59.700Z,45.87
2022-08-17T21:56:37.649Z,45.93
2022-08-17T21:59:30.115Z,45.97
2022-08-17T22:02:03.308Z,46.83
2022-08-17T22:04:31.895Z,48.60
2022-08-17T22:07:01.468Z,44.83
2022-08-17T22:09:32.456Z,45.53
2022-08-17T22:12:01.911Z,51.47
2022-08-17T22:14:53.394Z,49.47
2022-08-17T22:17:37.066Z,52.37
2022-08-17T22:20:14.566Z,53.77
2022-08-17T22:23:08.977Z,54.13
2022-08-17T22:25:56.368Z,53.00
2022-08-17T22:28:43.210Z,53.87
2022-08-17T22:31:14.449Z,52.90
2022-08-17T22:33:50.703Z,54.90
2022-08-17T22:36:29.229Z,57.23
2022-08-17T22:39:22.399Z,54.00
2022-08-17T22:41:55.912Z,54.90
2022-08-17T22:44:48.083Z,55.77
2022-08-17T22:47:14.982Z,55.17
2022-08-17T22:49:53.546Z,57.10
2022-08-17T22:52:34.235Z,57.67
2022-08-17T22:55:24.925Z,57.67
2022-08-17T22:58:10.820Z,56.13
2022-08-17T23:00:43.386Z,55.43
2022-08-17T23:03:28.222Z,56.53
2022-08-17T23:06:08.300Z,55.47
2022-08-17T23:09:08.711Z,56.63
2022-08-17T23:11:48.941Z,54.13
2022-08-17T23:14:18.811Z,52.77
2022-08-17T23:16:46.226Z,53.53
2022-08-17T23:19:15.565Z,54.30
2022-08-17T23:21:45.186Z,53.40
2022-08-17T23:24:16.866Z,52.63
2022-08-17T23:26:43.489Z,54.63
2022-08-17T23:29:10.147Z,54.33
2022-08-17T23:31:38.758Z,54.47
2022-08-17T23:34:11.667Z,53.13
2022-08-17T23:36:38.881Z,51.40
2022-08-17T23:39:06.685Z,51.83
2022-08-17T23:41:39.053Z,52.73
2022-08-17T23:44:07.032Z,49.83
2022-08-17T23:46:34.768Z,49.23
2022-08-17T23:49:01.537Z,47.53
2022-08-17T23:51:38.392Z,50.67
2022-08-17T23:54:16.075Z,49.93
2022-08-17T23:56:46.725Z,45.67
2022-08-17T23:59:15.110Z,45.90
